Time;durP1;ratioP1;P1;durP2;ratioP2;P2;SDS_P1;SDS_P2;PMS_P1;PMS_P2;Temp;Humidity;BMP_temperature;BMP_pressure;BME280_temperature;BME280_humidity;BME280_pressure;Samples;Min_cycle;Max_cycle;Signal;HPM_P1;HPM_P2
2023/11/05 00:01:47;;;;;;;;;1.00;1.00;;;;;14.73;89.41;96323.78;6219449;22;45320;-83
2023/11/05 00:04:12;;;;;;;;;1.67;1.33;;;;;14.76;89.20;96328.88;6221300;22;45273;-83
2023/11/05 00:06:38;;;;;;;;;0.67;0.67;;;;;14.81;89.22;96333.91;6220430;22;45364;-82
2023/11/05 00:09:03;;;;;;;;;1.33;1.33;;;;;14.80;89.38;96327.72;6247320;22;45375;-82
2023/11/05 00:11:29;;;;;;;;;0.00;0.00;;;;;14.80;89.21;96319.69;6221533;22;47837;-83
2023/11/05 00:13:54;;;;;;;;;4.00;3.00;;;;;14.79;88.95;96317.13;6222781;22;45328;-82
2023/11/05 00:16:20;;;;;;;;;2.00;1.00;;;;;14.85;89.12;96316.66;6250492;22;45162;-83
2023/11/05 00:18:45;;;;;;;;;5.67;1.33;;;;;14.83;88.95;96318.59;6220758;22;45471;-82
2023/11/05 00:21:11;;;;;;;;;1.67;1.00;;;;;14.79;88.83;96311.78;6249860;22;45794;-83
2023/11/05 00:23:36;;;;;;;;;0.75;0.75;;;;;14.87;88.74;96309.38;6249808;22;45412;-83
2023/11/05 00:26:01;;;;;;;;;1.00;1.00;;;;;14.91;88.79;96302.84;6221851;22;45428;-82
2023/11/05 00:28:27;;;;;;;;;2.00;0.67;;;;;14.92;88.81;96299.19;6250690;22;45368;-82
2023/11/05 00:30:53;;;;;;;;;3.00;1.00;;;;;15.12;88.98;96311.06;6221476;22;46911;-83
2023/11/05 00:34:01;;;;;;;;;2.00;2.00;;;;;15.30;88.21;96298.13;6247972;22;45417;-83
2023/11/05 00:36:27;;;;;;;;;2.00;1.00;;;;;15.00;89.57;96310.16;6250070;22;45312;-83
2023/11/05 00:38:55;;;;;;;;;3.00;2.00;;;;;15.01;88.79;96286.97;6250225;22;45404;-82
2023/11/05 00:41:21;;;;;;;;;0.75;0.75;;;;;15.07;88.71;96285.63;6221700;22;47071;-82
2023/11/05 00:43:46;;;;;;;;;3.00;2.00;;;;;15.13;88.53;96283.34;6220365;22;45413;-82
2023/11/05 00:46:12;;;;;;;;;3.00;1.00;;;;;15.15;88.93;96301.97;6216370;22;45368;-82
2023/11/05 00:48:38;;;;;;;;;1.00;1.00;;;;;15.09;89.88;96276.53;6218735;22;45510;-82
2023/11/05 00:51:05;;;;;;;;;0.00;0.00;;;;;15.13;90.09;96283.34;6220423;22;45069;-81
2023/11/05 00:53:31;;;;;;;;;2.00;2.00;;;;;15.09;89.96;96287.22;6217061;22;45602;-83
2023/11/05 00:55:56;;;;;;;;;0.67;0.67;;;;;15.05;90.41;96285.75;6217548;22;45284;-82
2023/11/05 00:58:22;;;;;;;;;0.67;0.67;;;;;15.13;90.08;96298.56;6216479;22;45288;-82
2023/11/05 01:00:47;;;;;;;;;2.00;2.00;;;;;15.11;91.38;96287.97;6217638;22;46898;-83
2023/11/05 01:03:13;;;;;;;;;1.00;1.00;;;;;15.14;91.95;96297.56;6217858;22;45249;-82
2023/11/05 01:05:38;;;;;;;;;1.00;1.00;;;;;15.08;92.17;96292.69;6213435;22;45559;-82
2023/11/05 01:08:04;;;;;;;;;1.00;1.00;;;;;14.98;91.81;96277.31;6214724;22;45886;-83
2023/11/05 01:10:29;;;;;;;;;2.33;2.00;;;;;15.03;92.18;96284.13;6216935;22;45299;-82
2023/11/05 01:12:56;;;;;;;;;2.00;2.00;;;;;15.13;92.90;96282.50;6218336;22;45519;-83
2023/11/05 01:15:22;;;;;;;;;0.25;0.25;;;;;14.92;92.74;96279.59;6216499;22;45539;-83
2023/11/05 01:17:48;;;;;;;;;4.00;1.00;;;;;14.92;92.97;96291.16;6217292;22;45380;-82
2023/11/05 01:20:14;;;;;;;;;2.00;1.00;;;;;14.86;92.51;96275.56;6217875;22;45550;-83
2023/11/05 01:22:40;;;;;;;;;3.00;1.00;;;;;14.92;92.94;96274.25;6216930;22;45389;-82
2023/11/05 01:25:05;;;;;;;;;1.67;1.00;;;;;14.92;93.15;96291.16;6217302;22;45593;-82
2023/11/05 01:27:31;;;;;;;;;0.00;0.00;;;;;14.83;93.48;96286.50;6216575;22;45477;-83
2023/11/05 01:29:56;;;;;;;;;0.00;0.00;;;;;14.87;93.22;96304.03;6215734;22;47173;-83
2023/11/05 01:32:22;;;;;;;;;0.00;0.00;;;;;14.86;93.10;96299.63;6218026;22;45300;-82
2023/11/05 01:34:47;;;;;;;;;1.00;1.00;;;;;14.87;93.35;96309.38;6217714;22;45623;-83
2023/11/05 01:37:12;;;;;;;;;1.67;1.00;;;;;14.87;92.96;96314.72;6216880;22;45126;-82
2023/11/05 01:39:38;;;;;;;;;0.00;0.00;;;;;14.83;93.02;96289.19;6215239;22;47098;-82
2023/11/05 01:42:04;;;;;;;;;1.00;1.00;;;;;14.87;94.44;96295.16;6216214;22;45285;-83
2023/11/05 01:44:29;;;;;;;;;2.00;1.00;;;;;14.83;95.43;96315.94;6218039;22;45349;-82
2023/11/05 01:46:55;;;;;;;;;1.67;0.00;;;;;14.82;94.28;96327.56;6215268;22;45513;-82
2023/11/05 01:49:20;;;;;;;;;0.00;0.00;;;;;14.77;95.76;96333.28;6188616;22;47416;-82
2023/11/05 01:51:47;;;;;;;;;0.00;0.00;;;;;14.73;97.07;96336.28;6217642;22;45375;-82
2023/11/05 01:54:12;;;;;;;;;0.00;0.00;;;;;14.64;97.59;96339.63;6219343;22;45248;-83
2023/11/05 01:56:39;;;;;;;;;0.50;0.00;;;;;14.59;98.50;96338.16;6218660;22;45324;-83
2023/11/05 01:59:05;;;;;;;;;0.25;0.25;;;;;14.51;99.13;96343.16;6216887;22;47241;-82
2023/11/05 02:01:30;;;;;;;;;1.00;0.00;;;;;14.50;98.87;96354.84;6221295;22;45240;-86
2023/11/05 02:03:56;;;;;;;;;0.00;0.00;;;;;14.56;98.65;96354.44;6221195;22;44828;-86
2023/11/05 02:06:21;;;;;;;;;2.00;0.00;;;;;14.51;98.21;96359.19;6222407;22;44866;-87
2023/11/05 02:08:47;;;;;;;;;1.00;1.00;;;;;14.54;98.39;96366.13;6223968;22;45175;-86
2023/11/05 02:11:12;;;;;;;;;0.00;0.00;;;;;14.58;98.23;96378.34;6223395;22;44715;-86
2023/11/05 02:13:46;;;;;;;;;0.75;0.75;;;;;14.84;97.82;96381.81;6221608;22;44780;-87
2023/11/05 02:16:12;;;;;;;;;0.00;0.00;;;;;14.59;97.52;96388.94;6221405;22;45337;-86
2023/11/05 02:18:37;;;;;;;;;1.00;1.00;;;;;14.53;97.65;96392.03;6224108;22;45582;-86
2023/11/05 02:21:04;;;;;;;;;0.75;0.75;;;;;14.65;97.04;96401.03;6222678;22;44697;-86
2023/11/05 02:23:31;;;;;;;;;1.00;0.00;;;;;14.55;96.94;96400.78;6224186;22;44796;-85
2023/11/05 02:25:56;;;;;;;;;1.50;1.50;;;;;14.52;96.66;96414.41;6220105;22;44836;-87
2023/11/05 02:28:22;;;;;;;;;0.00;0.00;;;;;14.52;96.61;96417.06;6222177;22;46849;-87
2023/11/05 02:30:49;;;;;;;;;0.75;0.75;;;;;14.49;96.76;96422.63;6223616;22;45290;-86
2023/11/05 02:33:15;;;;;;;;;0.00;0.00;;;;;14.53;96.76;96429.44;6224338;22;45195;-87
2023/11/05 02:35:47;;;;;;;;;0.00;0.00;;;;;14.86;96.64;96425.34;6223863;22;44954;-88
2023/11/05 02:38:12;;;;;;;;;0.00;0.00;;;;;14.66;95.84;96436.63;6226695;22;45007;-88
2023/11/05 02:40:38;;;;;;;;;0.00;0.00;;;;;14.72;95.00;96446.88;6199346;22;44770;-88
2023/11/05 02:43:03;;;;;;;;;0.50;0.50;;;;;14.70;94.95;96438.13;6225171;22;45368;-87
2023/11/05 02:45:29;;;;;;;;;0.00;0.00;;;;;14.70;94.41;96448.81;6228893;22;44807;-87
2023/11/05 02:47:54;;;;;;;;;2.00;0.67;;;;;14.76;94.96;96459.06;6257365;22;46102;-86
2023/11/05 02:50:19;;;;;;;;;0.00;0.00;;;;;14.74;93.90;96458.31;6257322;22;44768;-87
2023/11/05 02:52:45;;;;;;;;;0.00;0.00;;;;;14.68;92.18;96458.75;6257184;22;44889;-87
2023/11/05 02:55:11;;;;;;;;;1.67;1.67;;;;;14.69;93.79;96477.38;6229516;22;44858;-85
2023/11/05 02:57:37;;;;;;;;;1.00;1.00;;;;;14.73;93.36;96475.34;6228527;22;47151;-87
2023/11/05 03:00:05;;;;;;;;;0.25;0.25;;;;;14.79;93.99;96478.44;6230073;22;44814;-87
2023/11/05 03:02:37;;;;;;;;;0.00;0.00;;;;;14.93;94.38;96477.44;6229196;22;44859;-84
2023/11/05 03:05:04;;;;;;;;;0.00;0.00;;;;;14.74;94.74;96485.91;6258116;22;44689;-86
2023/11/05 03:07:30;;;;;;;;;1.00;0.00;;;;;14.74;96.35;96490.41;6229975;22;47021;-86
2023/11/05 03:09:56;;;;;;;;;1.00;1.00;;;;;14.87;94.89;96493.94;6232360;22;44730;-87
2023/11/05 03:12:22;;;;;;;;;0.00;0.00;;;;;14.75;94.13;96493.00;6231452;22;44752;-87
2023/11/05 03:14:48;;;;;;;;;0.00;0.00;;;;;14.77;93.80;96500.91;6261119;22;44730;-87
2023/11/05 03:17:13;;;;;;;;;0.00;0.00;;;;;14.69;92.86;96495.25;6231471;22;46575;-85
2023/11/05 03:19:39;;;;;;;;;0.00;0.00;;;;;14.69;92.67;96500.59;6259746;22;45256;-87
2023/11/05 03:22:06;;;;;;;;;0.25;0.25;;;;;14.69;93.44;96508.63;6260234;22;44777;-87
2023/11/05 03:24:31;;;;;;;;;1.00;1.00;;;;;14.69;93.24;96522.00;6233042;22;45111;-87
2023/11/05 03:26:56;;;;;;;;;1.00;1.00;;;;;14.68;92.00;96530.97;6232113;22;46940;-87
2023/11/05 03:29:25;;;;;;;;;2.00;1.00;;;;;14.82;92.65;96520.16;6260283;22;44848;-86
2023/11/05 03:31:51;;;;;;;;;0.00;0.00;;;;;14.72;93.02;96543.16;6258819;22;45360;-87
2023/11/05 03:37:42;;;;;;;;;0.00;0.00;;;;;14.80;92.15;96539.00;6260059;22;45381;-87
2023/11/05 03:40:07;;;;;;;;;1.00;1.00;;;;;14.78;92.10;96545.41;6260518;22;44712;-85
2023/11/05 03:42:33;;;;;;;;;0.00;0.00;;;;;14.75;91.36;96546.47;6233048;22;44835;-87
2023/11/05 03:44:59;;;;;;;;;0.00;0.00;;;;;14.70;91.26;96553.09;6234567;22;44850;-85
2023/11/05 03:47:25;;;;;;;;;0.50;0.00;;;;;14.72;92.18;96561.88;6258492;22;44845;-86
2023/11/05 03:49:50;;;;;;;;;0.00;0.00;;;;;14.75;91.91;96570.53;6233016;22;44817;-87
2023/11/05 03:52:16;;;;;;;;;2.00;2.00;;;;;14.83;92.48;96577.19;6260285;22;44930;-87
2023/11/05 03:54:42;;;;;;;;;0.00;0.00;;;;;14.85;92.06;96573.44;6205815;22;45242;-87
2023/11/05 03:57:08;;;;;;;;;0.00;0.00;;;;;14.87;91.57;96590.25;6231190;22;47151;-86
2023/11/05 03:59:33;;;;;;;;;0.00;0.00;;;;;14.90;91.85;96587.34;6259229;22;44766;-87
2023/11/05 04:01:59;;;;;;;;;1.00;0.75;;;;;14.92;91.31;96592.59;6258003;22;45670;-87
2023/11/05 04:04:24;;;;;;;;;1.00;1.00;;;;;14.91;91.49;96599.75;6231732;22;44889;-86
2023/11/05 04:06:50;;;;;;;;;2.00;0.00;;;;;14.91;90.98;96609.63;6257143;22;46588;-86
2023/11/05 04:09:15;;;;;;;;;1.00;0.00;;;;;14.87;91.08;96603.63;6232843;22;44846;-86
2023/11/05 04:11:41;;;;;;;;;0.75;0.00;;;;;14.86;91.30;96617.94;6260497;22;44815;-85
2023/11/05 04:14:07;;;;;;;;;2.00;0.00;;;;;14.90;90.79;96630.13;6260400;22;44790;-86
2023/11/05 04:16:32;;;;;;;;;0.00;0.00;;;;;14.90;90.78;96629.28;6233945;22;47000;-86
2023/11/05 04:18:58;;;;;;;;;0.00;0.00;;;;;15.03;90.33;96645.34;6260320;22;44840;-86
2023/11/05 04:21:24;;;;;;;;;0.00;0.00;;;;;14.90;90.53;96632.81;6231304;22;45172;-87
2023/11/05 04:23:50;;;;;;;;;0.00;0.00;;;;;14.93;90.77;96646.00;6256194;22;44830;-86
2023/11/05 04:26:15;;;;;;;;;0.00;0.00;;;;;14.87;91.10;96641.06;6260821;22;45115;-87
2023/11/05 04:28:41;;;;;;;;;0.00;0.00;;;;;14.92;90.94;96659.47;6234142;22;44759;-86
2023/11/05 04:31:09;;;;;;;;;1.00;1.00;;;;;14.91;89.95;96653.25;6259179;22;44779;-85
2023/11/05 04:33:34;;;;;;;;;0.33;0.33;;;;;14.91;89.86;96666.63;6261043;22;44705;-87
2023/11/05 04:36:00;;;;;;;;;0.00;0.00;;;;;14.95;90.29;96665.47;6233024;22;47319;-87
2023/11/05 04:38:25;;;;;;;;;0.00;0.00;;;;;14.94;90.29;96670.91;6231433;22;44766;-88
2023/11/05 04:40:51;;;;;;;;;0.67;0.00;;;;;15.01;90.07;96680.25;6257602;22;44842;-86
2023/11/05 04:43:17;;;;;;;;;0.00;0.00;;;;;14.96;89.53;96688.56;6232792;22;44969;-86
2023/11/05 04:45:43;;;;;;;;;0.33;0.00;;;;;15.06;89.65;96687.94;6231370;22;46997;-87
2023/11/05 04:48:08;;;;;;;;;2.25;1.00;;;;;15.02;89.68;96675.75;6201153;22;45345;-86
2023/11/05 04:50:33;;;;;;;;;0.00;0.00;;;;;15.12;89.15;96699.06;6202555;22;44781;-86
2023/11/05 04:52:59;;;;;;;;;0.00;0.00;;;;;15.14;89.19;96702.50;6228654;22;44884;-84
2023/11/05 04:55:24;;;;;;;;;0.33;0.33;;;;;15.09;88.48;96704.66;6200239;22;46880;-87
2023/11/05 04:57:50;;;;;;;;;0.67;0.67;;;;;15.15;88.83;96700.69;6203458;22;44804;-87
2023/11/05 05:00:15;;;;;;;;;1.33;0.00;;;;;15.13;88.38;96713.34;6203737;22;44773;-86
2023/11/05 05:02:41;;;;;;;;;1.00;0.00;;;;;15.15;88.21;96724.78;6230143;22;45179;-86
2023/11/05 05:05:07;;;;;;;;;0.00;0.00;;;;;15.10;88.17;96721.56;6202774;22;46725;-86
2023/11/05 05:07:32;;;;;;;;;0.00;0.00;;;;;15.06;88.39;96725.41;6229613;22;44746;-86
2023/11/05 05:13:21;;;;;;;;;1.00;1.00;;;;;15.28;88.32;96744.38;6228625;22;44736;-88
2023/11/05 05:15:46;;;;;;;;;0.00;0.00;;;;;15.14;87.49;96757.84;6202656;22;46926;-86
2023/11/05 05:18:12;;;;;;;;;1.00;1.00;;;;;15.14;87.92;96764.03;6201650;22;44843;-87
2023/11/05 05:20:37;;;;;;;;;1.00;1.00;;;;;15.10;88.02;96769.72;6228955;22;44754;-86
2023/11/05 05:23:04;;;;;;;;;0.33;0.00;;;;;15.21;87.98;96769.88;6203078;22;44718;-85
2023/11/05 05:25:29;;;;;;;;;0.00;0.00;;;;;15.08;87.47;96793.91;6203052;22;46866;-86
2023/11/05 05:27:55;;;;;;;;;0.00;0.00;;;;;15.02;87.36;96780.09;6202583;22;44749;-87
2023/11/05 05:30:21;;;;;;;;;0.00;0.00;;;;;14.99;87.55;96798.06;6229241;22;44898;-86
2023/11/05 05:32:47;;;;;;;;;0.00;0.00;;;;;14.99;87.72;96803.41;6229794;22;44741;-85
2023/11/05 05:35:12;;;;;;;;;2.00;0.00;;;;;15.03;87.39;96798.72;6228524;22;45112;-86
2023/11/05 05:37:38;;;;;;;;;0.00;0.00;;;;;14.98;87.07;96804.34;6228458;22;45021;-86
2023/11/05 05:40:06;;;;;;;;;0.00;0.00;;;;;15.06;85.97;96821.72;6227860;22;44845;-84
2023/11/05 05:42:32;;;;;;;;;0.00;0.00;;;;;15.04;85.22;96840.56;6200628;22;44919;-87
2023/11/05 05:44:57;;;;;;;;;0.00;0.00;;;;;15.03;85.38;96827.28;6202414;22;47019;-86
2023/11/05 05:47:23;;;;;;;;;0.00;0.00;;;;;15.05;85.60;96842.28;6216642;22;45309;-87
2023/11/05 05:49:49;;;;;;;;;0.00;0.00;;;;;15.03;85.64;96851.34;6228181;22;44855;-88
2023/11/05 05:52:21;;;;;;;;;0.00;0.00;;;;;14.96;84.92;96841.06;6229165;22;44883;-87
2023/11/05 05:54:46;;;;;;;;;0.00;0.00;;;;;14.95;85.42;96855.41;6227194;22;47108;-86
2023/11/05 05:57:12;;;;;;;;;0.00;0.00;;;;;14.99;85.04;96864.97;6227663;22;44723;-87
2023/11/05 05:59:38;;;;;;;;;0.00;0.00;;;;;15.17;85.23;96883.44;6228044;22;44822;-87
2023/11/05 06:02:07;;;;;;;;;0.00;0.00;;;;;15.03;85.16;96879.00;6229741;22;44913;-87
2023/11/05 06:04:33;;;;;;;;;0.00;0.00;;;;;15.04;84.51;96899.44;6227419;22;45571;-86
2023/11/05 06:06:58;;;;;;;;;0.00;0.00;;;;;15.08;84.27;96905.44;6226358;22;44819;-87
2023/11/05 06:09:25;;;;;;;;;0.00;0.00;;;;;15.25;84.52;96907.00;6228622;22;44791;-87
2023/11/05 06:11:50;;;;;;;;;0.00;0.00;;;;;15.11;84.30;96915.97;6228188;22;44728;-86
2023/11/05 06:14:22;;;;;;;;;0.00;0.00;;;;;15.37;83.65;96932.94;6225755;22;46971;-85
2023/11/05 06:16:47;;;;;;;;;0.00;0.00;;;;;15.05;84.01;96930.59;6225759;22;44845;-85
2023/11/05 06:19:13;;;;;;;;;0.00;0.00;;;;;15.08;84.07;96946.44;6225495;22;44916;-87
2023/11/05 06:25:00;;;;;;;;;0.00;0.00;;;;;15.06;83.63;96963.56;6227682;22;45080;-85
2023/11/05 06:27:26;;;;;;;;;0.00;0.00;;;;;15.06;83.66;96969.75;6227539;22;44772;-87
2023/11/05 06:29:55;;;;;;;;;0.00;0.00;;;;;15.07;83.67;96982.19;6224282;22;44820;-85
2023/11/05 06:32:21;;;;;;;;;0.00;0.00;;;;;15.09;83.97;96976.72;6224193;22;44745;-85
2023/11/05 06:34:47;;;;;;;;;0.00;0.00;;;;;15.15;83.39;96989.75;6227002;22;45240;-86
2023/11/05 06:37:12;;;;;;;;;0.00;0.00;;;;;15.17;83.58;96995.84;6227803;22;44677;-87
2023/11/05 06:39:38;;;;;;;;;0.00;0.00;;;;;15.19;83.51;97001.97;6228310;22;44842;-85
2023/11/05 06:42:03;;;;;;;;;0.00;0.00;;;;;15.20;83.50;97011.69;6227464;22;45014;-86
2023/11/05 06:44:30;;;;;;;;;0.00;0.00;;;;;15.21;83.10;97018.78;6227810;22;45157;-87
2023/11/05 06:46:55;;;;;;;;;0.00;0.00;;;;;15.22;82.59;97036.53;6225943;22;45195;-87
2023/11/05 06:49:20;;;;;;;;;0.00;0.00;;;;;15.25;82.68;97036.38;6229604;22;44806;-87
2023/11/05 06:51:46;;;;;;;;;0.00;0.00;;;;;15.28;82.22;97046.00;6228646;22;45218;-87
2023/11/05 06:54:11;;;;;;;;;0.00;0.00;;;;;15.30;82.16;97055.66;6227135;22;46620;-87
2023/11/05 06:56:37;;;;;;;;;0.00;0.00;;;;;15.32;82.00;97064.44;6226909;22;44840;-87
2023/11/05 06:59:02;;;;;;;;;0.00;0.00;;;;;15.30;82.02;97061.00;6227748;22;44765;-85
2023/11/05 07:01:29;;;;;;;;;0.00;0.00;;;;;15.39;82.08;97076.50;6231091;22;44826;-87
2023/11/05 07:03:54;;;;;;;;;0.00;0.00;;;;;15.37;81.74;97083.75;6226636;22;47054;-86
2023/11/05 07:06:20;;;;;;;;;0.00;0.00;;;;;15.37;81.56;97089.13;6226635;22;44784;-87
2023/11/05 07:12:08;;;;;;;;;0.67;0.00;;;;;15.45;81.29;97096.66;6230436;22;44861;-86
2023/11/05 07:14:33;;;;;;;;;0.00;0.00;;;;;15.46;80.76;97119.78;6228523;22;47224;-86
2023/11/05 07:16:59;;;;;;;;;0.00;0.00;;;;;15.51;80.22;97127.53;6226974;22;45012;-86
2023/11/05 07:19:24;;;;;;;;;0.00;0.00;;;;;15.48;80.43;97122.38;6227392;22;44861;-87
2023/11/05 07:21:50;;;;;;;;;0.00;0.00;;;;;15.54;80.44;97149.63;6227989;22;44780;-86
2023/11/05 07:24:15;;;;;;;;;0.00;0.00;;;;;15.52;80.13;97154.22;6228873;22;45354;-85
2023/11/05 07:26:43;;;;;;;;;0.00;0.00;;;;;15.55;80.52;97169.22;6228220;22;45363;-87
2023/11/05 07:29:10;;;;;;;;;0.00;0.00;;;;;15.57;80.94;97175.34;6228197;22;44809;-87
2023/11/05 07:31:36;;;;;;;;;0.00;0.00;;;;;15.57;80.95;97180.69;6227017;22;44922;-87
2023/11/05 07:34:05;;;;;;;;;0.00;0.00;;;;;15.80;80.96;97176.59;6226303;22;47282;-87
2023/11/05 07:36:30;;;;;;;;;0.00;0.00;;;;;15.59;80.61;97178.78;6226223;22;45022;-87
2023/11/05 13:01:40;;;;;;;;;1.75;1.75;;;;;18.36;59.91;98292.50;6221603;22;45914;-82
2023/11/05 13:04:05;;;;;;;;;5.00;2.25;;;;;18.19;60.59;98298.84;6220239;22;45300;-82
2023/11/05 13:06:31;;;;;;;;;2.25;2.25;;;;;18.29;61.20;98309.94;6195717;22;45993;-81
2023/11/05 13:08:58;;;;;;;;;5.00;2.00;;;;;18.34;61.23;98307.84;6249254;22;45401;-81
2023/11/05 13:11:24;;;;;;;;;1.75;1.00;;;;;18.26;61.28;98304.72;6219582;22;45419;-82
2023/11/05 13:13:50;;;;;;;;;2.00;1.75;;;;;18.44;61.78;98325.25;6248410;22;45780;-82
2023/11/05 13:16:16;;;;;;;;;3.75;3.00;;;;;18.47;61.27;98326.88;6222690;22;45583;-82
2023/11/05 13:18:41;;;;;;;;;1.00;1.00;;;;;18.56;61.64;98320.97;6221350;22;47648;-82
2023/11/05 13:21:07;;;;;;;;;2.75;2.75;;;;;18.64;60.18;98325.91;6248407;22;45368;-82
2023/11/05 13:26:54;;;;;;;;;1.75;1.75;;;;;18.57;60.21;98345.09;6250024;22;45289;-82
2023/11/05 13:29:19;;;;;;;;;4.00;2.75;;;;;18.48;60.93;98367.19;6246208;22;46526;-83
2023/11/05 13:31:46;;;;;;;;;1.50;1.50;;;;;18.36;62.57;98355.28;6220511;22;45397;-81
2023/11/05 13:34:13;;;;;;;;;3.50;2.25;;;;;18.18;63.08;98367.91;6220350;22;45447;-82
2023/11/05 13:36:39;;;;;;;;;2.00;2.00;;;;;18.10;63.28;98377.38;6244812;22;45387;-82
2023/11/05 13:39:05;;;;;;;;;1.00;1.00;;;;;18.10;64.20;98374.69;6244935;22;45520;-83
2023/11/05 13:41:30;;;;;;;;;1.00;1.00;;;;;18.06;64.11;98378.50;6218118;22;45370;-83
2023/11/05 13:43:56;;;;;;;;;1.00;1.00;;;;;17.96;63.63;98383.50;6218821;22;45621;-82
2023/11/05 13:46:21;;;;;;;;;2.00;1.00;;;;;17.77;63.79;98384.44;6247225;22;45235;-82
2023/11/05 13:48:47;;;;;;;;;3.00;1.00;;;;;17.58;64.38;98378.31;6245108;22;46650;-82
2023/11/05 13:51:12;;;;;;;;;0.00;0.00;;;;;17.53;64.64;98392.00;6247201;22;45392;-82
2023/11/05 13:53:38;;;;;;;;;2.00;1.00;;;;;17.36;64.92;98391.97;6219219;22;45254;-83
2023/11/05 13:56:05;;;;;;;;;1.00;1.00;;;;;17.37;65.28;98409.81;6221337;22;45520;-83
2023/11/05 13:58:30;;;;;;;;;1.75;1.75;;;;;17.30;65.47;98409.28;6248551;22;45475;-82
2023/11/05 14:00:56;;;;;;;;;3.00;1.00;;;;;17.31;66.03;98413.72;6213696;22;45373;-83
2023/11/05 14:03:23;;;;;;;;;0.75;0.75;;;;;17.53;66.21;98417.97;6215285;22;45396;-82
2023/11/05 14:05:48;;;;;;;;;1.50;1.50;;;;;17.49;66.22;98417.28;6215167;22;44789;-82
2023/11/05 14:08:15;;;;;;;;;3.25;1.00;;;;;17.60;66.62;98424.78;6215036;22;46924;-83
2023/11/05 14:10:41;;;;;;;;;1.25;1.25;;;;;17.66;66.51;98423.59;6213562;22;45772;-82
2023/11/05 14:13:06;;;;;;;;;0.50;0.50;;;;;17.74;66.44;98427.63;6215623;22;45701;-83
2023/11/05 14:15:33;;;;;;;;;1.00;1.00;;;;;18.01;65.85;98437.03;6215663;22;45335;-83
2023/11/05 14:17:58;;;;;;;;;1.25;1.25;;;;;18.02;65.88;98450.41;6213979;22;47400;-83
2023/11/05 14:20:23;;;;;;;;;1.00;1.00;;;;;18.20;65.32;98453.94;6215038;22;44764;-82
2023/11/05 14:22:49;;;;;;;;;2.00;2.00;;;;;18.27;65.34;98451.78;6216214;22;45485;-83
2023/11/05 14:25:15;;;;;;;;;3.00;1.75;;;;;18.37;65.32;98458.38;6215976;22;45432;-83
2023/11/05 14:27:40;;;;;;;;;2.00;2.00;;;;;18.43;64.56;98451.81;6217858;22;46091;-82
2023/11/05 14:30:06;;;;;;;;;0.75;0.75;;;;;18.52;63.15;98445.91;6216855;22;45448;-82
2023/11/05 14:32:33;;;;;;;;;0.50;0.50;;;;;18.44;63.32;98449.03;6214271;22;45433;-82
2023/11/05 14:34:58;;;;;;;;;0.00;0.00;;;;;18.46;62.48;98457.91;6216746;22;45391;-83
2023/11/05 14:37:26;;;;;;;;;0.00;0.00;;;;;18.53;62.65;98467.34;6217169;22;46096;-82
2023/11/05 14:39:52;;;;;;;;;0.00;0.00;;;;;18.52;62.78;98471.03;6215280;22;44836;-82
2023/11/05 14:42:17;;;;;;;;;2.00;1.00;;;;;18.50;61.96;98475.63;6214869;22;45245;-83
2023/11/05 14:44:46;;;;;;;;;0.00;0.00;;;;;18.67;61.56;98488.13;6212826;22;45274;-82
2023/11/05 14:47:13;;;;;;;;;1.00;1.00;;;;;18.43;61.67;98487.66;6213672;22;47986;-83
2023/11/05 14:49:38;;;;;;;;;0.00;0.00;;;;;18.46;60.49;98498.28;6217900;22;45399;-83
2023/11/05 14:52:04;;;;;;;;;2.00;1.00;;;;;18.45;60.91;98495.66;6216702;22;45440;-82
2023/11/05 14:54:30;;;;;;;;;0.00;0.00;;;;;18.47;61.62;98502.69;6217001;22;45317;-83
2023/11/05 14:56:56;;;;;;;;;0.25;0.25;;;;;18.47;60.59;98510.75;6219383;22;45320;-82
2023/11/05 14:59:21;;;;;;;;;2.00;1.75;;;;;18.38;59.95;98524.72;6219555;22;45318;-82
2023/11/05 15:01:50;;;;;;;;;1.50;0.50;;;;;18.32;59.73;98536.69;6243068;22;45227;-82
2023/11/05 15:04:15;;;;;;;;;1.00;1.00;;;;;18.25;60.57;98542.47;6248396;22;45458;-82
2023/11/05 15:06:41;;;;;;;;;0.00;0.00;;;;;18.14;59.84;98530.44;6221006;22;48194;-82
2023/11/05 15:09:06;;;;;;;;;0.00;0.00;;;;;18.18;59.50;98550.88;6249458;22;45490;-83
2023/11/05 15:11:32;;;;;;;;;0.25;0.25;;;;;18.14;59.29;98549.28;6221026;22;45443;-83
2023/11/05 15:13:59;;;;;;;;;0.75;0.75;;;;;18.12;58.72;98556.56;6220419;22;45523;-83
2023/11/05 15:16:27;;;;;;;;;1.00;1.00;;;;;18.25;58.43;98570.22;6249259;22;45968;-82
2023/11/05 15:18:53;;;;;;;;;2.50;0.00;;;;;18.00;58.57;98576.03;6220676;22;45290;-82
2023/11/05 15:21:19;;;;;;;;;2.00;0.00;;;;;17.92;58.11;98576.41;6218535;22;45340;-82
2023/11/05 15:23:45;;;;;;;;;0.75;0.75;;;;;17.80;58.31;98583.22;6220223;22;45373;-81
2023/11/05 15:26:12;;;;;;;;;0.50;0.50;;;;;17.63;58.35;98577.81;6221059;22;47073;-83
2023/11/05 15:28:40;;;;;;;;;0.75;0.00;;;;;17.77;58.88;98595.94;6221600;22;45437;-83
2023/11/05 15:31:09;;;;;;;;;2.00;0.00;;;;;17.71;59.77;98602.50;6249358;22;44765;-83
2023/11/05 15:33:38;;;;;;;;;1.00;1.00;;;;;17.63;59.28;98602.00;6248959;22;45453;-83
2023/11/05 15:36:05;;;;;;;;;1.00;1.00;;;;;17.59;59.41;98600.41;6246904;22;45389;-83
2023/11/05 15:38:32;;;;;;;;;1.00;0.00;;;;;17.56;60.11;98614.03;6247327;22;45392;-82
2023/11/05 15:40:58;;;;;;;;;0.00;0.00;;;;;17.56;60.07;98609.50;6221581;22;45397;-82
2023/11/05 15:43:23;;;;;;;;;1.00;0.50;;;;;17.48;60.02;98613.53;6221070;22;45382;-83
2023/11/05 15:45:49;;;;;;;;;1.50;1.00;;;;;17.41;59.93;98618.34;6248111;22;44955;-83
2023/11/05 15:48:15;;;;;;;;;1.75;0.00;;;;;17.23;59.89;98608.44;6248155;22;45323;-83
2023/11/05 15:50:40;;;;;;;;;0.50;0.50;;;;;17.15;60.25;98614.19;6219964;22;45746;-83
2023/11/05 15:53:08;;;;;;;;;0.50;0.00;;;;;17.11;60.61;98620.66;6248024;22;45515;-82
2023/11/05 15:55:34;;;;;;;;;1.00;1.00;;;;;17.05;60.94;98635.22;6248552;22;45442;-83
2023/11/05 15:57:59;;;;;;;;;0.75;0.75;;;;;17.04;60.80;98641.53;6247360;22;45700;-83
2023/11/05 16:00:25;;;;;;;;;0.75;0.75;;;;;17.01;60.72;98636.31;6214874;22;45418;-83
2023/11/05 16:02:50;;;;;;;;;0.25;0.25;;;;;16.93;60.78;98647.41;6218732;22;45292;-83
2023/11/05 16:08:39;;;;;;;;;1.00;1.00;;;;;16.94;60.84;98656.31;6217424;22;45435;-82
2023/11/05 16:11:05;;;;;;;;;1.00;1.00;;;;;16.79;61.25;98657.84;6214428;22;45489;-82
2023/11/05 16:13:30;;;;;;;;;0.00;0.00;;;;;16.75;61.42;98658.94;6217060;22;45437;-83
2023/11/05 16:15:55;;;;;;;;;1.00;0.00;;;;;16.76;61.50;98663.34;6217487;22;45311;-83
2023/11/05 16:18:21;;;;;;;;;0.00;0.00;;;;;16.76;61.31;98664.25;6216696;22;45296;-82
2023/11/05 16:20:46;;;;;;;;;1.00;1.00;;;;;16.73;61.53;98663.50;6217416;22;45806;-82
2023/11/05 16:23:12;;;;;;;;;1.00;1.00;;;;;16.60;61.73;98663.16;6215109;22;45341;-82
2023/11/05 16:25:38;;;;;;;;;1.00;1.00;;;;;16.62;61.90;98679.19;6217207;22;45379;-83
2023/11/05 16:28:04;;;;;;;;;1.00;1.00;;;;;16.52;62.08;98682.28;6215592;22;45295;-83
2023/11/05 16:30:32;;;;;;;;;2.00;2.00;;;;;16.64;62.20;98696.09;6217686;22;45392;-82
2023/11/05 16:32:59;;;;;;;;;2.33;1.67;;;;;16.50;62.38;98686.84;6217469;22;45304;-82
2023/11/05 16:35:25;;;;;;;;;1.00;1.00;;;;;16.28;62.99;98704.78;6214857;22;47321;-82
2023/11/05 16:37:52;;;;;;;;;3.00;3.00;;;;;16.24;63.21;98705.84;6215254;22;45220;-82
2023/11/05 16:40:18;;;;;;;;;3.00;3.00;;;;;16.12;63.53;98710.78;6215753;22;45439;-82
2023/11/05 16:42:45;;;;;;;;;1.67;1.67;;;;;16.07;63.82;98712.78;6214419;22;45381;-83
2023/11/05 16:45:11;;;;;;;;;3.00;1.67;;;;;16.02;64.11;98720.16;6213377;22;47099;-81
2023/11/05 16:47:39;;;;;;;;;1.33;1.00;;;;;15.88;64.34;98719.84;6217529;22;45324;-82
2023/11/05 16:50:07;;;;;;;;;2.00;2.00;;;;;15.88;64.68;98722.53;6217454;22;45290;-82
2023/11/05 16:52:33;;;;;;;;;3.33;3.33;;;;;15.85;64.99;98728.00;6216639;22;44857;-82
2023/11/05 16:54:59;;;;;;;;;3.67;2.00;;;;;15.76;65.12;98739.97;6214798;22;46920;-81
2023/11/05 16:57:24;;;;;;;;;2.00;2.00;;;;;15.72;65.27;98727.56;6216161;22;45445;-82
2023/11/05 16:59:50;;;;;;;;;4.00;4.00;;;;;15.71;65.60;98736.53;6214521;22;45427;-81
2023/11/05 17:02:15;;;;;;;;;2.00;2.00;;;;;15.66;65.95;98747.44;6246155;22;45450;-82
2023/11/05 17:04:45;;;;;;;;;3.00;3.00;;;;;15.61;66.10;98746.72;6220192;22;47240;-82
2023/11/05 17:07:15;;;;;;;;;4.67;4.00;;;;;15.57;66.10;98754.03;6247087;22;45412;-81
2023/11/05 17:13:02;;;;;;;;;3.00;3.00;;;;;15.52;66.50;98765.84;6247928;22;45443;-82
2023/11/05 17:15:27;;;;;;;;;4.00;4.00;;;;;15.48;66.69;98764.22;6220636;22;46497;-81